createdAt,value
2017-09-04T00:00:11.167Z,99.99
2017-09-04T00:01:21.438Z,99.99
2017-09-04T00:02:31.721Z,99.99
2017-09-04T00:03:41.925Z,99.99
2017-09-04T00:04:52.198Z,99.99
2017-09-04T00:06:02.466Z,99.99
2017-09-04T00:07:12.746Z,99.99
2017-09-04T00:08:23.017Z,99.99
2017-09-04T00:09:33.541Z,99.99
2017-09-04T00:10:43.187Z,99.99
2017-09-04T00:11:52.836Z,99.99
2017-09-04T00:13:03.112Z,99.99
2017-09-04T00:14:13.051Z,99.99
2017-09-04T00:15:23.248Z,99.99
2017-09-04T00:16:33.521Z,99.99
2017-09-04T00:17:43.801Z,99.99
2017-09-04T00:18:54.064Z,99.99
2017-09-04T00:20:04.362Z,99.99
2017-09-04T00:21:14.900Z,99.99
2017-09-04T00:22:25.169Z,99.99
2017-09-04T00:23:35.433Z,99.99
2017-09-04T00:24:45.752Z,99.99
2017-09-04T00:25:56.020Z,99.99
2017-09-04T00:27:06.597Z,99.99
2017-09-04T00:28:16.567Z,99.99
2017-09-04T00:29:26.845Z,99.99
2017-09-04T00:30:37.126Z,99.99
2017-09-04T00:31:47.077Z,99.99
2017-09-04T00:32:57.603Z,99.99
2017-09-04T00:34:07.560Z,99.99
2017-09-04T00:35:17.847Z,99.99
2017-09-04T00:36:28.124Z,99.99
2017-09-04T00:37:38.083Z,99.99
2017-09-04T00:38:48.593Z,99.99
2017-09-04T00:39:58.867Z,99.99
2017-09-04T00:41:08.826Z,99.99
2017-09-04T00:42:18.777Z,99.99
2017-09-04T00:43:28.758Z,99.99
2017-09-04T00:44:38.963Z,99.99
2017-09-04T00:45:48.890Z,99.99
2017-09-04T00:46:59.159Z,99.99
2017-09-04T00:48:09.422Z,99.99
2017-09-04T00:49:19.685Z,99.99
2017-09-04T00:50:30.196Z,99.99
2017-09-04T00:51:40.143Z,99.99
2017-09-04T00:52:50.422Z,99.99
2017-09-04T00:54:00.404Z,99.99
2017-09-04T00:55:10.353Z,99.99
2017-09-04T00:56:20.893Z,99.99
2017-09-04T00:57:31.174Z,99.99
2017-09-04T00:58:41.496Z,99.99
2017-09-04T00:59:51.421Z,99.99
2017-09-04T01:01:01.380Z,99.99
2017-09-04T01:02:11.588Z,99.99
2017-09-04T01:03:21.855Z,99.99
2017-09-04T01:04:32.114Z,99.99
2017-09-04T01:05:42.390Z,99.99
2017-09-04T01:06:52.661Z,99.99
2017-09-04T01:08:03.200Z,99.99
2017-09-04T01:09:13.154Z,99.99
2017-09-04T01:10:23.416Z,99.99
2017-09-04T01:11:33.411Z,99.99
2017-09-04T01:12:43.680Z,99.99
2017-09-04T01:13:54.194Z,99.99
2017-09-04T01:15:04.147Z,99.99
2017-09-04T01:16:14.421Z,99.99
2017-09-04T01:17:24.407Z,99.99
2017-09-04T01:18:34.672Z,99.99
2017-09-04T01:19:45.199Z,99.99
2017-09-04T01:20:55.486Z,99.99
2017-09-04T01:22:04.828Z,99.99
2017-09-04T01:23:15.266Z,99.99
2017-09-04T01:24:25.546Z,99.99
2017-09-04T01:25:36.053Z,99.99
2017-09-04T01:26:46.330Z,99.99
2017-09-04T01:27:56.632Z,99.99
2017-09-04T01:29:06.589Z,99.99
2017-09-04T01:30:16.867Z,99.99
2017-09-04T01:31:27.440Z,99.99
2017-09-04T01:32:37.711Z,99.99
2017-09-04T01:33:47.986Z,99.99
2017-09-04T01:34:57.949Z,99.99
2017-09-04T01:36:07.908Z,99.99
2017-09-04T01:37:18.449Z,99.99
2017-09-04T01:38:28.097Z,99.99
2017-09-04T01:39:38.079Z,99.99
2017-09-04T01:40:48.358Z,99.99
2017-09-04T01:41:58.639Z,99.99
2017-09-04T01:43:08.845Z,99.99
2017-09-04T01:44:19.123Z,99.99
2017-09-04T01:45:29.399Z,99.99
2017-09-04T01:46:39.357Z,99.99
2017-09-04T01:47:49.624Z,99.99
2017-09-04T01:48:59.832Z,99.99
2017-09-04T01:50:10.135Z,99.99
2017-09-04T01:51:20.408Z,99.99
2017-09-04T01:52:30.362Z,99.99
2017-09-04T01:53:40.644Z,99.99
2017-09-04T01:54:51.172Z,99.99
2017-09-04T01:56:01.134Z,99.99
2017-09-04T01:57:11.401Z,99.99
2017-09-04T01:58:21.660Z,99.99
2017-09-04T01:59:31.620Z,99.99
2017-09-04T02:00:42.137Z,99.99
2017-09-04T02:01:52.401Z,99.99
2017-09-04T02:03:02.687Z,99.99
2017-09-04T02:04:12.972Z,99.99
2017-09-04T02:05:23.245Z,99.99
2017-09-04T02:06:33.444Z,99.99
2017-09-04T02:07:43.397Z,99.99
2017-09-04T02:08:53.367Z,99.99
2017-09-04T02:10:03.331Z,99.99
2017-09-04T02:11:13.301Z,99.99
2017-09-04T02:12:23.818Z,99.99
2017-09-04T02:13:34.097Z,99.99
2017-09-04T02:14:44.373Z,99.99
2017-09-04T02:15:54.331Z,99.99
2017-09-04T02:17:04.587Z,99.99
2017-09-04T02:18:14.794Z,99.99
2017-09-04T02:19:25.554Z,99.99
2017-09-04T02:20:35.815Z,99.99
2017-09-04T02:21:46.093Z,99.99
2017-09-04T02:22:56.355Z,99.99
2017-09-04T02:24:06.565Z,99.99
2017-09-04T02:25:16.513Z,99.99
2017-09-04T02:26:26.803Z,99.99
2017-09-04T02:27:37.075Z,99.99
2017-09-04T02:28:47.264Z,99.99
2017-09-04T02:29:57.482Z,99.99
2017-09-04T02:31:07.780Z,99.99
2017-09-04T02:32:18.044Z,99.99
2017-09-04T02:33:28.312Z,99.99
2017-09-04T02:34:38.252Z,99.99
2017-09-04T02:35:48.788Z,99.99
2017-09-04T02:36:59.085Z,99.99
2017-09-04T02:38:09.060Z,99.99
2017-09-04T02:39:19.865Z,99.99
2017-09-04T02:40:29.824Z,99.99
2017-09-04T02:41:40.330Z,99.99
2017-09-04T02:42:49.975Z,99.99
2017-09-04T02:43:59.923Z,99.99
2017-09-04T02:45:09.565Z,99.99
2017-09-04T02:46:19.840Z,99.99
2017-09-04T02:47:30.103Z,99.99
2017-09-04T02:48:40.379Z,99.99
2017-09-04T02:49:50.667Z,99.99
2017-09-04T02:51:00.933Z,99.99
2017-09-04T02:52:11.200Z,99.99
2017-09-04T02:53:21.703Z,99.99
2017-09-04T02:54:31.651Z,99.99
2017-09-04T02:55:41.623Z,99.99
2017-09-04T02:56:51.929Z,99.99
2017-09-04T02:58:02.183Z,99.99
2017-09-04T02:59:12.695Z,99.99
2017-09-04T03:00:22.976Z,99.99
2017-09-04T03:01:33.253Z,99.99
2017-09-04T03:02:43.531Z,99.99
2017-09-04T03:03:53.816Z,99.99
2017-09-04T03:05:04.347Z,99.99
2017-09-04T03:06:14.307Z,99.99
2017-09-04T03:07:24.588Z,99.99
2017-09-04T03:08:34.892Z,99.99
2017-09-04T03:09:45.153Z,99.99
2017-09-04T03:10:55.362Z,99.99
2017-09-04T03:12:05.630Z,99.99
2017-09-04T03:13:15.924Z,99.99
2017-09-04T03:14:26.206Z,99.99
2017-09-04T03:15:36.482Z,99.99
2017-09-04T03:16:46.999Z,99.99
2017-09-04T03:17:56.963Z,99.99
2017-09-04T03:19:07.220Z,99.99
2017-09-04T03:20:17.166Z,99.99
2017-09-04T03:21:27.117Z,99.99
2017-09-04T03:22:37.326Z,99.99
2017-09-04T03:23:46.944Z,99.99
2017-09-04T03:24:57.219Z,99.99
2017-09-04T03:26:07.177Z,99.99
2017-09-04T03:27:17.435Z,99.99
2017-09-04T03:28:27.313Z,99.99
2017-09-04T03:29:37.571Z,99.99
2017-09-04T03:30:47.837Z,99.99
2017-09-04T03:31:57.806Z,99.99
2017-09-04T03:33:08.081Z,99.99
2017-09-04T03:34:18.289Z,99.99
2017-09-04T03:35:28.239Z,99.99
2017-09-04T03:36:38.193Z,99.99
2017-09-04T03:37:48.466Z,99.99
2017-09-04T03:38:58.740Z,99.99
2017-09-04T03:40:09.281Z,99.99
2017-09-04T03:41:19.562Z,99.99
2017-09-04T03:42:29.514Z,99.99
2017-09-04T03:43:39.465Z,99.99
2017-09-04T03:44:49.753Z,99.99
2017-09-04T03:45:59.959Z,99.99
2017-09-04T03:47:10.216Z,99.99
2017-09-04T03:48:20.182Z,99.99
2017-09-04T03:49:30.464Z,99.99
2017-09-04T03:50:40.751Z,99.99
2017-09-04T03:51:50.963Z,99.99
2017-09-04T03:53:01.248Z,99.99
2017-09-04T03:54:11.512Z,99.99
2017-09-04T03:55:21.783Z,99.99
2017-09-04T03:56:31.755Z,99.99
2017-09-04T03:57:41.963Z,99.99
2017-09-04T03:58:52.231Z,99.99
2017-09-04T04:00:02.501Z,99.99
2017-09-04T04:01:12.456Z,99.99
2017-09-04T04:02:22.724Z,99.99
2017-09-04T04:03:33.244Z,99.99
2017-09-04T04:04:43.526Z,99.99
2017-09-04T04:05:53.486Z,99.99
2017-09-04T04:07:03.753Z,99.99
2017-09-04T04:08:14.013Z,99.99
2017-09-04T04:09:24.239Z,99.99
2017-09-04T04:10:34.518Z,99.99
2017-09-04T04:11:44.798Z,99.99
2017-09-04T04:12:55.413Z,99.99
2017-09-04T04:14:05.363Z,99.99
2017-09-04T04:15:15.631Z,99.99
2017-09-04T04:16:25.901Z,99.99
2017-09-04T04:17:35.869Z,99.99
2017-09-04T04:18:46.152Z,99.99
2017-09-04T04:19:56.140Z,99.99
2017-09-04T04:21:06.657Z,99.99
2017-09-04T04:22:16.934Z,99.99
2017-09-04T04:23:27.225Z,99.99
2017-09-04T04:24:37.176Z,99.99
2017-09-04T04:25:47.543Z,99.99
2017-09-04T04:26:58.061Z,99.99
2017-09-04T04:28:08.354Z,99.99
2017-09-04T04:29:18.309Z,99.99
2017-09-04T04:30:28.568Z,99.99
2017-09-04T04:31:38.550Z,99.99
2017-09-04T04:32:49.077Z,99.99
2017-09-04T04:33:59.345Z,99.99
2017-09-04T04:35:09.621Z,99.99
2017-09-04T04:36:19.566Z,99.99
2017-09-04T04:37:29.841Z,99.99
2017-09-04T04:38:40.364Z,99.99
2017-09-04T04:39:50.346Z,99.99
2017-09-04T04:41:00.638Z,99.99
2017-09-04T04:42:10.911Z,99.99
2017-09-04T04:43:21.195Z,99.99
2017-09-04T04:44:31.071Z,99.99
2017-09-04T04:45:40.735Z,99.99
2017-09-04T04:46:51.008Z,99.99
2017-09-04T04:48:01.283Z,99.99
2017-09-04T04:49:11.235Z,99.99
2017-09-04T04:50:21.748Z,99.99
2017-09-04T04:51:32.012Z,99.99
2017-09-04T04:52:42.279Z,99.99
2017-09-04T04:53:52.568Z,99.99
2017-09-04T04:55:02.844Z,99.99
2017-09-04T04:56:13.426Z,99.99
2017-09-04T04:57:23.379Z,99.99
2017-09-04T04:58:33.673Z,99.99
2017-09-04T04:59:44.503Z,99.99
2017-09-04T05:00:54.855Z,99.99
2017-09-04T05:02:04.799Z,99.99
2017-09-04T05:03:15.093Z,99.99
2017-09-04T05:04:25.408Z,99.99
2017-09-04T05:05:35.683Z,99.99
2017-09-04T05:06:45.642Z,99.99
2017-09-04T05:07:55.524Z,99.99
2017-09-04T05:09:05.791Z,99.99
2017-09-04T05:10:15.766Z,99.99
2017-09-04T05:11:25.789Z,99.99
2017-09-04T05:12:35.738Z,99.99
2017-09-04T05:13:45.937Z,99.99
2017-09-04T05:14:55.584Z,99.99
2017-09-04T05:16:05.852Z,99.99
2017-09-04T05:17:16.118Z,99.99
2017-09-04T05:18:26.063Z,99.99
2017-09-04T05:19:36.287Z,99.99
2017-09-04T05:20:46.556Z,99.99
2017-09-04T05:21:56.827Z,99.99
2017-09-04T05:23:07.098Z,99.99
2017-09-04T05:24:17.370Z,99.99
2017-09-04T05:25:27.915Z,99.99
2017-09-04T05:26:37.543Z,99.99
2017-09-04T05:27:47.842Z,99.99
2017-09-04T05:28:57.795Z,99.99
2017-09-04T05:30:08.070Z,99.99
2017-09-04T05:31:18.586Z,99.99
2017-09-04T05:32:28.854Z,99.99
2017-09-04T05:33:39.140Z,99.99
2017-09-04T05:34:49.446Z,99.99
2017-09-04T05:35:59.720Z,99.99
2017-09-04T05:37:09.920Z,99.99
2017-09-04T05:38:20.189Z,99.99
2017-09-04T05:39:30.149Z,99.99
2017-09-04T05:40:40.090Z,99.99
2017-09-04T05:41:50.346Z,99.99
2017-09-04T05:43:00.237Z,99.99
2017-09-04T05:44:10.514Z,99.99
2017-09-04T05:45:20.812Z,99.99
2017-09-04T05:46:30.767Z,99.99
2017-09-04T05:47:40.729Z,99.99
2017-09-04T05:48:50.949Z,99.99
2017-09-04T05:50:00.908Z,99.99
2017-09-04T05:51:10.900Z,99.99
2017-09-04T05:52:20.865Z,99.99
2017-09-04T05:53:31.153Z,99.99
2017-09-04T05:54:41.759Z,99.99
2017-09-04T05:55:51.979Z,99.99
2017-09-04T05:57:02.268Z,99.99
2017-09-04T05:58:11.609Z,99.99
2017-09-04T05:59:21.904Z,99.99
2017-09-04T06:00:32.431Z,99.99
2017-09-04T06:01:42.994Z,99.99
2017-09-04T06:02:52.946Z,99.99
2017-09-04T06:04:03.235Z,99.99
2017-09-04T06:05:13.213Z,99.99
2017-09-04T06:06:23.746Z,99.99
2017-09-04T06:07:34.010Z,99.99
2017-09-04T06:08:44.286Z,99.99
2017-09-04T06:09:54.568Z,99.99
2017-09-04T06:11:04.874Z,99.99
2017-09-04T06:12:15.413Z,99.99
2017-09-04T06:13:25.699Z,99.99
2017-09-04T06:14:35.972Z,99.99
2017-09-04T06:15:46.246Z,99.99
2017-09-04T06:16:56.194Z,99.99
2017-09-04T06:18:06.716Z,99.99
2017-09-04T06:19:17.007Z,99.99
2017-09-04T06:20:27.303Z,99.99
2017-09-04T06:21:36.953Z,99.99
2017-09-04T06:22:46.914Z,99.99
2017-09-04T06:23:57.451Z,99.99
2017-09-04T06:25:07.767Z,99.99
2017-09-04T06:26:18.027Z,99.99
2017-09-04T06:27:28.005Z,99.99
2017-09-04T06:28:37.962Z,99.99
2017-09-04T06:29:48.174Z,99.99
2017-09-04T06:30:58.460Z,99.99
2017-09-04T06:32:08.737Z,99.99
2017-09-04T06:33:18.994Z,99.99
2017-09-04T06:34:29.268Z,99.99
2017-09-04T06:35:39.782Z,99.99
2017-09-04T06:36:50.073Z,99.99
2017-09-04T06:38:00.364Z,99.99
2017-09-04T06:39:10.313Z,99.99
2017-09-04T06:40:20.612Z,99.99
2017-09-04T06:41:31.192Z,99.99
2017-09-04T06:42:41.455Z,99.99
2017-09-04T06:43:51.717Z,99.99
2017-09-04T06:45:01.987Z,99.99
2017-09-04T06:46:12.273Z,99.99
2017-09-04T06:47:22.819Z,99.99
2017-09-04T06:48:32.449Z,99.99
2017-09-04T06:49:42.753Z,99.99
2017-09-04T06:50:53.027Z,99.99
2017-09-04T06:52:02.677Z,99.99
2017-09-04T06:53:12.888Z,99.99
2017-09-04T06:54:22.879Z,99.99
2017-09-04T06:55:32.847Z,99.99
2017-09-04T06:56:43.137Z,99.99
2017-09-04T06:57:53.105Z,99.99
2017-09-04T06:59:03.024Z,99.99
2017-09-04T07:00:12.977Z,99.99
2017-09-04T07:01:23.252Z,99.99
2017-09-04T07:02:33.541Z,99.28
2017-09-04T07:03:43.549Z,99.47
2017-09-04T07:04:53.755Z,99.99
2017-09-04T07:06:04.042Z,99.99
2017-09-04T07:07:14.313Z,99.52
2017-09-04T07:08:24.610Z,98.75
2017-09-04T07:09:34.882Z,97.99
2017-09-04T07:10:45.406Z,98.08
2017-09-04T07:11:55.690Z,98.75
2017-09-04T07:13:05.979Z,99.62
2017-09-04T07:14:16.258Z,99.23
2017-09-04T07:15:26.210Z,97.52
2017-09-04T07:16:36.757Z,98.66
2017-09-04T07:17:47.024Z,95.07
2017-09-04T07:18:56.984Z,96.66
2017-09-04T07:20:06.950Z,94.31
2017-09-04T07:21:16.900Z,94.6
2017-09-04T07:22:27.456Z,93.74
2017-09-04T07:23:37.060Z,93.07
2017-09-04T07:24:47.392Z,93.16
2017-09-04T07:25:57.027Z,93.07
2017-09-04T07:27:07.318Z,91.93
2017-09-04T07:28:17.540Z,91.64
2017-09-04T07:29:27.506Z,90.97
2017-09-04T07:30:37.461Z,90.34
2017-09-04T07:31:47.417Z,90.82
2017-09-04T07:32:57.720Z,90.06
2017-09-04T07:34:08.261Z,90.44
2017-09-04T07:35:18.544Z,89.96
2017-09-04T07:36:28.846Z,90.44
2017-09-04T07:37:39.121Z,89.87
2017-09-04T07:38:48.433Z,89.2
2017-09-04T07:39:58.669Z,88.24
2017-09-04T07:41:08.652Z,88.81
2017-09-04T07:42:18.939Z,87.95
2017-09-04T07:43:29.228Z,88
2017-09-04T07:44:39.497Z,88.29
2017-09-04T07:45:50.028Z,87.52
2017-09-04T07:46:59.995Z,86.47
2017-09-04T07:48:10.263Z,86.47
2017-09-04T07:49:20.231Z,85.8
2017-09-04T07:50:30.504Z,86.18
2017-09-04T07:51:40.715Z,85.71
2017-09-04T07:52:50.681Z,85.99
2017-09-04T07:54:00.970Z,85.41
2017-09-04T07:55:11.279Z,85.61
2017-09-04T07:56:21.604Z,84.59
2017-09-04T07:57:31.508Z,84.27
2017-09-04T07:58:41.481Z,83.4
2017-09-04T07:59:51.776Z,83.79
2017-09-04T08:01:02.061Z,84.79
2017-09-04T08:02:12.029Z,84.31
2017-09-04T08:03:22.250Z,83.93
2017-09-04T08:04:32.525Z,84.36
2017-09-04T08:05:42.509Z,84.02
2017-09-04T08:06:52.813Z,83.06
2017-09-04T08:08:03.088Z,83.93
2017-09-04T08:09:13.611Z,83.73
2017-09-04T08:10:23.893Z,82.2
2017-09-04T08:11:34.181Z,81.63
2017-09-04T08:12:44.469Z,82.68
2017-09-04T08:13:54.428Z,81.67
2017-09-04T08:15:04.651Z,81.86
2017-09-04T08:16:14.957Z,81.29
2017-09-04T08:17:24.914Z,81.38
2017-09-04T08:18:35.211Z,80.71
2017-09-04T08:19:45.175Z,80.52
2017-09-04T08:20:55.703Z,80.43
2017-09-04T08:22:05.990Z,80.14
2017-09-04T08:23:16.269Z,78.22
2017-09-04T08:24:26.254Z,77.02
2017-09-04T08:25:36.541Z,77.21
2017-09-04T08:26:46.766Z,76
2017-09-04T08:27:57.044Z,75.52
2017-09-04T08:29:07.318Z,75.43
2017-09-04T08:30:17.619Z,75.56
2017-09-04T08:31:27.584Z,76.52
2017-09-04T08:32:37.826Z,75.31
2017-09-04T08:33:48.131Z,72.63
2017-09-04T08:34:58.403Z,70.99
2017-09-04T08:36:08.718Z,71.28
2017-09-04T08:37:19.005Z,71.86
2017-09-04T08:38:29.600Z,71.86
2017-09-04T08:39:39.571Z,73.49
2017-09-04T08:40:49.537Z,72.91
2017-09-04T08:41:59.855Z,70.99
2017-09-04T08:43:10.140Z,69.93
2017-09-04T08:44:20.672Z,70.13
2017-09-04T08:45:30.985Z,70.99
2017-09-04T08:46:40.977Z,70.13
2017-09-04T08:47:51.268Z,70.7
2017-09-04T08:49:00.925Z,69.46
2017-09-04T08:50:11.141Z,68.98
2017-09-04T08:51:21.456Z,69.26
2017-09-04T08:52:31.453Z,69.3
2017-09-04T08:53:41.474Z,69.2
2017-09-04T08:54:51.747Z,68.08
2017-09-04T08:56:01.980Z,68.37
2017-09-04T08:57:12.276Z,68.57
2017-09-04T08:58:22.590Z,69.24
2017-09-04T08:59:32.569Z,67.8
2017-09-04T09:00:42.536Z,66.3
2017-09-04T09:01:53.098Z,66.93
2017-09-04T09:03:03.395Z,67.7
2017-09-04T09:04:13.666Z,67.32
2017-09-04T09:05:23.334Z,67.9
2017-09-04T09:06:33.631Z,67.9
2017-09-04T09:07:44.156Z,66.84
2017-09-04T09:08:54.458Z,66.55
2017-09-04T09:10:04.790Z,66.84
2017-09-04T09:11:14.843Z,66.55
2017-09-04T09:12:25.146Z,66.36
2017-09-04T09:13:35.369Z,67.32
2017-09-04T09:14:45.654Z,66.64
2017-09-04T09:15:55.622Z,67.07
2017-09-04T09:17:05.918Z,65.2
2017-09-04T09:18:15.257Z,65.88
2017-09-04T09:19:25.783Z,65.69
2017-09-04T09:20:36.075Z,66.74
2017-09-04T09:21:46.359Z,66.26
2017-09-04T09:22:56.336Z,65.23
2017-09-04T09:24:06.619Z,64.09
2017-09-04T09:25:17.153Z,62.77
2017-09-04T09:26:27.443Z,62.77
2017-09-04T09:27:37.721Z,62.77
2017-09-04T09:28:48.012Z,62.38
2017-09-04T09:29:58.317Z,61.65
2017-09-04T09:31:08.842Z,60.94
2017-09-04T09:32:19.140Z,60.75
2017-09-04T09:33:29.627Z,61.52
2017-09-04T09:34:39.598Z,61.04
2017-09-04T09:35:49.876Z,61.43
2017-09-04T09:37:04.963Z,60.69
2017-09-04T09:38:15.270Z,61.26
2017-09-04T09:39:25.587Z,60.66
2017-09-04T09:40:35.589Z,61.71
2017-09-04T09:41:45.301Z,61.61
2017-09-04T09:42:55.855Z,61.91
2017-09-04T09:44:06.155Z,59.41
2017-09-04T09:45:16.143Z,59.31
2017-09-04T09:46:26.456Z,60.66
2017-09-04T09:47:36.750Z,59.99
2017-09-04T09:48:47.297Z,59.82
2017-09-04T09:49:57.574Z,60.11
2017-09-04T09:51:07.555Z,59.82
2017-09-04T09:52:17.837Z,58.37
2017-09-04T09:53:27.790Z,58.12
2017-09-04T09:54:38.021Z,58.5
2017-09-04T09:55:48.013Z,59.08
2017-09-04T09:56:58.001Z,58.82
2017-09-04T09:58:08.283Z,58.22
2017-09-04T09:59:18.575Z,59.94
2017-09-04T10:00:28.809Z,59.63
2017-09-04T10:01:39.091Z,60.3
2017-09-04T10:02:49.058Z,60.3
2017-09-04T10:03:59.333Z,60.52
2017-09-04T10:05:09.299Z,58.7
2017-09-04T10:06:19.207Z,58.89
2017-09-04T10:07:29.183Z,59.37
2017-09-04T10:08:39.472Z,59.01
2017-09-04T10:09:49.449Z,56.8
2017-09-04T10:10:59.734Z,56.8
2017-09-04T10:12:10.272Z,56.99
2017-09-04T10:13:20.252Z,57.37
2017-09-04T10:14:30.546Z,56.8
2017-09-04T10:15:40.506Z,57.31
2017-09-04T10:16:50.798Z,54.9
2017-09-04T10:18:01.021Z,54.32
2017-09-04T10:19:11.312Z,55
2017-09-04T10:20:21.638Z,54.9
2017-09-04T10:21:31.608Z,55.87
2017-09-04T10:22:41.907Z,55.87
2017-09-04T10:23:52.460Z,54.44
2017-09-04T10:25:02.754Z,54.64
2017-09-04T10:26:13.034Z,54.47
2017-09-04T10:27:23.340Z,55.79
2017-09-04T10:28:33.645Z,56.73
2017-09-04T10:29:44.204Z,56.9
2017-09-04T10:30:53.856Z,54.32
2017-09-04T10:32:04.153Z,53.36
2017-09-04T10:33:14.444Z,54.87
2017-09-04T10:34:24.418Z,54.71
2017-09-04T10:35:34.665Z,55
2017-09-04T10:36:44.647Z,55.09
2017-09-04T10:37:54.967Z,55.38
2017-09-04T10:39:05.244Z,55.67
2017-09-04T10:40:15.256Z,55.45
2017-09-04T10:41:25.494Z,55.74
2017-09-04T10:42:35.776Z,53.62
2017-09-04T10:43:46.054Z,52.49
2017-09-04T10:44:56.349Z,53.36
2017-09-04T10:46:06.655Z,52.66
2017-09-04T10:47:17.187Z,53.81
2017-09-04T10:48:27.464Z,53.72
2017-09-04T10:49:37.763Z,54.1
2017-09-04T10:50:48.054Z,54.39
2017-09-04T10:51:58.348Z,54.78
2017-09-04T10:53:08.923Z,55.71
2017-09-04T10:54:19.215Z,53.98
2017-09-04T10:55:29.181Z,54
2017-09-04T10:56:38.821Z,53.55
2017-09-04T10:57:49.121Z,53.53
2017-09-04T10:58:59.664Z,54.39
2017-09-04T11:00:09.836Z,53.91
2017-09-04T11:01:20.140Z,54.65
2017-09-04T11:02:30.124Z,55.23
2017-09-04T11:03:40.420Z,54.75
2017-09-04T11:04:50.945Z,54.78
2017-09-04T11:06:00.959Z,54
2017-09-04T11:07:11.253Z,54.22
2017-09-04T11:08:20.891Z,52.69
2017-09-04T11:09:31.173Z,52.69
2017-09-04T11:10:41.414Z,52.81
2017-09-04T11:11:51.389Z,52.42
2017-09-04T11:13:01.677Z,52.91
2017-09-04T11:14:11.964Z,51.94
2017-09-04T11:15:22.256Z,52.13
2017-09-04T11:16:32.802Z,52.2
2017-09-04T11:17:42.799Z,50.59
2017-09-04T11:18:53.101Z,49.82
2017-09-04T11:20:03.398Z,49.53
2017-09-04T11:21:13.677Z,50.59
2017-09-04T11:22:24.048Z,51.26
2017-09-04T11:23:34.034Z,51.24
2017-09-04T11:24:44.011Z,51.14
2017-09-04T11:25:54.307Z,52.01
2017-09-04T11:27:04.277Z,51.82
2017-09-04T11:28:14.490Z,51.82
2017-09-04T11:29:24.149Z,50.85
2017-09-04T11:30:33.790Z,50.59
2017-09-04T11:31:44.088Z,50.98
2017-09-04T11:32:54.390Z,50.78
2017-09-04T11:34:04.935Z,49.05
2017-09-04T11:35:15.214Z,49.34
2017-09-04T11:36:25.180Z,50.21
2017-09-04T11:37:34.849Z,50.18
2017-09-04T11:38:45.164Z,50.37
2017-09-04T11:39:55.398Z,50.76
2017-09-04T11:41:05.700Z,51.92
2017-09-04T11:42:15.975Z,50.27
2017-09-04T11:43:26.279Z,49.82
2017-09-04T11:44:35.618Z,49.79
2017-09-04T11:45:45.527Z,49.99
2017-09-04T11:46:55.802Z,50.85
2017-09-04T11:48:06.107Z,50.09
2017-09-04T11:49:16.459Z,49.53
2017-09-04T11:50:26.431Z,48.69
2017-09-04T11:51:36.648Z,48.88
2017-09-04T11:52:46.939Z,47.82
2017-09-04T11:53:57.213Z,48.97
2017-09-04T11:55:07.497Z,48.88
2017-09-04T11:56:17.784Z,48.11
2017-09-04T11:57:27.994Z,48.03
2017-09-04T11:58:38.275Z,47.55
2017-09-04T11:59:48.573Z,48.01
2017-09-04T12:00:58.242Z,48.86
2017-09-04T12:02:08.224Z,49.05
2017-09-04T12:03:18.465Z,48.38
2017-09-04T12:04:28.766Z,48.11
2017-09-04T12:05:39.066Z,47.85
2017-09-04T12:06:49.330Z,46.23
2017-09-04T12:07:59.306Z,47.27
2017-09-04T12:09:09.847Z,47.85
2017-09-04T12:10:20.135Z,46.9
2017-09-04T12:11:30.443Z,46.78
2017-09-04T12:12:40.737Z,47.27
2017-09-04T12:13:50.703Z,47.07
2017-09-04T12:15:01.254Z,47.58
2017-09-04T12:16:11.544Z,45.34
2017-09-04T12:17:21.829Z,45.62
2017-09-04T12:18:32.140Z,46.28
2017-09-04T12:19:42.406Z,46.37
2017-09-04T12:20:52.629Z,45.24
2017-09-04T12:22:02.958Z,45.51
2017-09-04T12:23:12.927Z,46.01
2017-09-04T12:24:23.210Z,45.92
2017-09-04T12:25:33.181Z,46.59
2017-09-04T12:26:42.775Z,46.78
2017-09-04T12:27:53.073Z,46.78
2017-09-04T12:29:03.347Z,46.33
2017-09-04T12:30:13.337Z,47.17
2017-09-04T12:31:23.624Z,46.97
2017-09-04T12:32:34.167Z,46.76
2017-09-04T12:33:44.127Z,45.24
2017-09-04T12:34:54.425Z,45.04
2017-09-04T12:36:04.730Z,45.53
2017-09-04T12:37:14.724Z,46.3
2017-09-04T12:38:25.267Z,45.82
2017-09-04T12:39:35.562Z,45.17
2017-09-04T12:40:44.927Z,45.45
2017-09-04T12:41:55.212Z,44.97
2017-09-04T12:43:05.167Z,45.09
2017-09-04T12:44:15.705Z,45.09
2017-09-04T12:45:25.702Z,45.48
2017-09-04T12:46:35.987Z,45.28
2017-09-04T12:47:46.280Z,45.07
2017-09-04T12:48:56.578Z,46.33
2017-09-04T12:50:06.486Z,46.71
2017-09-04T12:51:16.767Z,47.07
2017-09-04T12:52:26.737Z,47.85
2017-09-04T12:53:37.031Z,46.97
2017-09-04T12:54:47.311Z,46.71
2017-09-04T12:55:57.601Z,46.81
2017-09-04T12:57:07.886Z,45.26
2017-09-04T12:58:18.195Z,46.9
2017-09-04T12:59:28.163Z,47.48
2017-09-04T13:00:38.437Z,47
2017-09-04T13:01:48.674Z,45.84
2017-09-04T13:02:58.977Z,45.72
2017-09-04T13:04:08.958Z,46.59
2017-09-04T13:05:19.256Z,46.11
2017-09-04T13:06:29.215Z,47.07
2017-09-04T13:07:39.751Z,47.05
2017-09-04T13:08:50.023Z,46.59
2017-09-04T13:10:00.007Z,46.95
2017-09-04T13:11:09.980Z,46.18
2017-09-04T13:12:20.280Z,45.6
2017-09-04T13:13:30.817Z,46.76
2017-09-04T13:14:40.785Z,46.95
2017-09-04T13:15:51.024Z,46.66
2017-09-04T13:17:00.994Z,45.6
2017-09-04T13:18:11.295Z,45.89
2017-09-04T13:19:21.522Z,45.79
2017-09-04T13:20:31.503Z,46.08
2017-09-04T13:21:41.809Z,45.12
2017-09-04T13:22:52.100Z,45.62
2017-09-04T13:24:02.382Z,45.62
2017-09-04T13:25:12.623Z,46.01
2017-09-04T13:26:22.922Z,45.04
2017-09-04T13:27:32.894Z,45.55
2017-09-04T13:28:42.871Z,43.52
2017-09-04T13:29:53.168Z,43.52
2017-09-04T13:31:03.375Z,43.91
2017-09-04T13:32:13.654Z,43.54
2017-09-04T13:33:23.637Z,44.49
2017-09-04T13:34:33.631Z,44.39
2017-09-04T13:35:43.599Z,44.87
2017-09-04T13:36:54.158Z,44.85
2017-09-04T13:38:04.459Z,45.43
2017-09-04T13:39:14.740Z,45.14
2017-09-04T13:40:25.043Z,45.24
2017-09-04T13:41:35.321Z,45.92
2017-09-04T13:42:45.540Z,44.85
2017-09-04T13:43:55.511Z,44.29
2017-09-04T13:45:05.784Z,43.52
2017-09-04T13:46:15.464Z,43.93
2017-09-04T13:47:25.738Z,44.22
2017-09-04T13:48:36.276Z,42.77
2017-09-04T13:49:46.569Z,43.64
2017-09-04T13:50:56.842Z,43.26
2017-09-04T13:52:07.134Z,43.37
2017-09-04T13:53:17.431Z,43.08
2017-09-04T13:54:27.976Z,44.51
2017-09-04T13:55:38.268Z,43.72
2017-09-04T13:56:47.908Z,44.97
2017-09-04T13:57:57.559Z,44.85
2017-09-04T13:59:07.864Z,45.03
2017-09-04T14:00:18.379Z,45.7
2017-09-04T14:01:28.669Z,46.18
2017-09-04T14:02:38.938Z,47.44
2017-09-04T14:03:48.908Z,47.82
2017-09-04T14:04:59.201Z,48.3
2017-09-04T14:06:09.746Z,46.56
2017-09-04T14:07:20.033Z,47.14
2017-09-04T14:08:30.330Z,47.82
2017-09-04T14:09:40.292Z,47.8
2017-09-04T14:10:50.571Z,48.01
2017-09-04T14:12:01.111Z,47.14
2017-09-04T14:13:11.395Z,47.8
2017-09-04T14:14:21.351Z,46.37
2017-09-04T14:15:31.006Z,46.76
2017-09-04T14:16:41.272Z,46.28
2017-09-04T14:17:51.477Z,46.45
2017-09-04T14:19:01.764Z,46.76
2017-09-04T14:20:12.059Z,46.37
2017-09-04T14:21:22.361Z,46.28
2017-09-04T14:22:32.652Z,46.28
2017-09-04T14:23:43.193Z,45.99
2017-09-04T14:24:53.167Z,46.18
2017-09-04T14:26:03.465Z,45.03
2017-09-04T14:27:13.444Z,45.41
2017-09-04T14:28:23.428Z,44.54
2017-09-04T14:29:33.950Z,45.03
2017-09-04T14:30:44.237Z,45.68
2017-09-04T14:31:54.518Z,45.68
2017-09-04T14:33:04.809Z,46.25
2017-09-04T14:34:15.112Z,46.35
2017-09-04T14:35:25.351Z,46.45
2017-09-04T14:36:35.630Z,46.55
2017-09-04T14:37:45.926Z,46.66
2017-09-04T14:38:55.889Z,46.01
2017-09-04T14:40:05.862Z,45.34
2017-09-04T14:41:16.129Z,45.6
2017-09-04T14:42:26.408Z,45.99
2017-09-04T14:43:36.702Z,46.73
2017-09-04T14:44:46.985Z,46.83
2017-09-04T14:45:56.966Z,46.83
2017-09-04T14:47:07.525Z,47.41
2017-09-04T14:48:17.500Z,47.12
2017-09-04T14:49:27.810Z,47.89
2017-09-04T14:50:37.789Z,47.41
2017-09-04T14:51:47.458Z,47.1
2017-09-04T14:52:57.994Z,47.7
2017-09-04T14:54:08.273Z,46.73
2017-09-04T14:55:18.602Z,46.83
2017-09-04T14:56:28.550Z,47.41
2017-09-04T14:57:38.828Z,47.8
2017-09-04T14:58:49.365Z,47.39
2017-09-04T14:59:59.645Z,47.58
2017-09-04T15:01:09.927Z,47.49
2017-09-04T15:02:20.220Z,47.87
2017-09-04T15:03:30.183Z,47.97
2017-09-04T15:04:40.405Z,48.57
2017-09-04T15:05:50.066Z,48.95